Time;durP1;ratioP1;P1;durP2;ratioP2;P2;SDS_P1;SDS_P2;PMS_P1;PMS_P2;Temp;Humidity;BMP_temperature;BMP_pressure;BME280_temperature;BME280_humidity;BME280_pressure;Samples;Min_cycle;Max_cycle;Signal;HPM_P1;HPM_P2
2023/12/14 00:01:32;;;;;;;2.63;2.28;;;;;;;4.58;100.00;96312.94;5105908;28;20398;-81
2023/12/14 00:03:58;;;;;;;2.75;2.38;;;;;;;4.58;100.00;96309.53;5103575;28;20397;-81
2023/12/14 00:06:24;;;;;;;2.90;2.40;;;;;;;4.57;100.00;96311.34;5104942;28;20485;-82
2023/12/14 00:08:50;;;;;;;5.40;3.30;;;;;;;4.58;100.00;96317.41;5107267;28;20418;-81
2023/12/14 00:11:16;;;;;;;3.95;3.00;;;;;;;4.56;100.00;96322.88;5123366;28;20420;-81
2023/12/14 00:13:43;;;;;;;2.83;2.53;;;;;;;4.57;100.00;96321.03;5128533;28;20396;-81
2023/12/14 00:16:09;;;;;;;3.30;2.78;;;;;;;4.57;100.00;96329.69;5130051;28;20449;-82
2023/12/14 00:18:37;;;;;;;4.63;3.10;;;;;;;4.57;100.00;96328.91;5120640;28;20403;-80
2023/12/14 00:21:04;;;;;;;3.38;2.70;;;;;;;4.57;100.00;96324.47;5120885;28;20395;-81
2023/12/14 00:23:30;;;;;;;3.28;2.55;;;;;;;4.58;100.00;96333.91;5120613;28;20396;-81
2023/12/14 00:25:56;;;;;;;3.25;2.60;;;;;;;4.60;100.00;96338.91;5119956;28;20391;-81
2023/12/14 00:28:23;;;;;;;3.80;2.75;;;;;;;4.60;100.00;96342.31;5120410;28;20420;-81
2023/12/14 00:30:49;;;;;;;3.20;2.47;;;;;;;4.61;100.00;96338.66;5124855;28;20396;-81
2023/12/14 00:33:15;;;;;;;3.38;2.40;;;;;;;4.63;100.00;96341.84;5126060;28;20428;-81
2023/12/14 00:35:42;;;;;;;2.70;2.40;;;;;;;4.65;100.00;96339.78;5120593;28;20384;-80
2023/12/14 00:38:09;;;;;;;3.15;2.40;;;;;;;4.66;100.00;96343.97;5120413;28;20396;-80
2023/12/14 00:40:35;;;;;;;3.17;2.67;;;;;;;4.67;100.00;96345.56;5119275;28;20475;-79
2023/12/14 00:43:01;;;;;;;3.50;2.42;;;;;;;4.68;100.00;96349.78;5120459;28;20834;-81
2023/12/14 00:45:27;;;;;;;5.47;3.55;;;;;;;4.66;100.00;96345.81;5112473;28;20399;-81
2023/12/14 00:47:53;;;;;;;9.38;5.30;;;;;;;4.63;100.00;96351.53;5100079;28;20413;-81
2023/12/14 00:50:19;;;;;;;8.35;4.50;;;;;;;4.62;100.00;96357.81;5099054;28;20398;-81
2023/12/14 00:52:47;;;;;;;8.50;4.72;;;;;;;4.60;100.00;96357.25;5098550;28;20394;-81
2023/12/14 00:55:13;;;;;;;8.68;4.63;;;;;;;4.60;100.00;96363.28;5099026;28;20398;-81
2023/12/14 00:57:39;;;;;;;8.60;4.20;;;;;;;4.61;100.00;96369.31;5099177;28;20400;-81
2023/12/14 01:00:07;;;;;;;8.63;5.00;;;;;;;4.61;100.00;96367.50;5098701;28;20424;-81
2023/12/14 01:02:33;;;;;;;14.50;6.15;;;;;;;4.57;100.00;96371.63;5098803;28;20426;-81
2023/12/14 01:04:59;;;;;;;14.63;6.90;;;;;;;4.53;100.00;96374.94;5101547;28;20529;-81
2023/12/14 01:07:25;;;;;;;12.60;6.50;;;;;;;4.50;100.00;96383.31;5118346;28;20781;-81
2023/12/14 01:09:52;;;;;;;15.35;6.88;;;;;;;4.47;100.00;96381.94;5117966;28;20411;-80
2023/12/14 01:12:19;;;;;;;16.13;6.77;;;;;;;4.45;100.00;96384.00;5119174;28;20450;-81
2023/12/14 01:14:45;;;;;;;14.77;7.18;;;;;;;4.42;100.00;96387.09;5100729;28;20398;-80
2023/12/14 01:17:11;;;;;;;14.10;7.00;;;;;;;4.42;100.00;96386.31;5097923;28;20892;-81
2023/12/14 01:19:40;;;;;;;9.25;5.07;;;;;;;4.43;100.00;96393.94;5098341;28;20746;-81
2023/12/14 01:22:07;;;;;;;9.52;5.10;;;;;;;4.45;100.00;96399.72;5098118;28;20454;-81
2023/12/14 01:24:33;;;;;;;12.30;6.30;;;;;;;4.44;100.00;96405.97;5098214;28;20772;-81
2023/12/14 01:27:00;;;;;;;9.43;5.30;;;;;;;4.42;100.00;96408.06;5098110;28;20520;-80
2023/12/14 01:29:26;;;;;;;11.43;5.35;;;;;;;4.40;100.00;96412.75;5098226;28;20425;-81
2023/12/14 01:31:53;;;;;;;7.88;5.07;;;;;;;4.41;100.00;96416.16;5098355;28;20898;-81
2023/12/14 01:34:19;;;;;;;8.23;5.32;;;;;;;4.39;100.00;96421.63;5099727;28;20429;-81
2023/12/14 01:36:45;;;;;;;7.03;4.63;;;;;;;4.41;100.00;96430.06;5100403;28;20897;-81
2023/12/14 01:39:11;;;;;;;6.68;4.13;;;;;;;4.42;100.00;96436.88;5085670;28;20409;-81
2023/12/14 01:41:38;;;;;;;5.78;3.80;;;;;;;4.44;100.00;96440.03;5099327;28;20453;-82
2023/12/14 01:44:05;;;;;;;6.22;3.97;;;;;;;4.47;100.00;96449.28;5100229;28;20401;-81
2023/12/14 01:46:31;;;;;;;4.55;3.60;;;;;;;4.48;100.00;96445.63;5102281;28;20893;-81
2023/12/14 01:48:57;;;;;;;6.82;3.85;;;;;;;4.48;100.00;96448.25;5098977;28;20417;-82
2023/12/14 01:51:23;;;;;;;6.05;3.63;;;;;;;4.48;100.00;96453.47;5080099;28;20436;-81
2023/12/14 01:53:50;;;;;;;7.43;4.82;;;;;;;4.43;100.00;96451.59;5099008;28;20394;-81
2023/12/14 01:56:16;;;;;;;8.15;5.00;;;;;;;4.41;100.00;96455.44;5099003;28;20424;-81
2023/12/14 01:58:42;;;;;;;7.35;4.80;;;;;;;4.38;100.00;96451.47;5100816;28;20402;-81
2023/12/14 02:01:19;;;;;;;7.10;4.70;;;;;;;4.39;100.00;96457.50;5504425;22;20602;-78
2023/12/14 02:03:45;;;;;;;9.38;5.30;;;;;;;4.36;100.00;96458.75;5051520;28;20861;-78
2023/12/14 02:06:12;;;;;;;14.75;5.50;;;;;;;4.33;100.00;96459.25;5061737;22;20404;-79
2023/12/14 02:08:38;;;;;;;10.48;5.50;;;;;;;4.33;100.00;96463.69;5070976;28;20416;-78
2023/12/14 02:11:04;;;;;;;9.93;5.30;;;;;;;4.30;100.00;96472.78;5066563;28;20394;-78
2023/12/14 02:13:30;;;;;;;14.32;6.72;;;;;;;4.27;100.00;96468.03;5064765;28;20933;-78
2023/12/14 02:15:57;;;;;;;13.30;6.13;;;;;;;4.27;100.00;96476.69;5061698;28;20422;-78
2023/12/14 02:18:24;;;;;;;10.43;5.72;;;;;;;4.27;100.00;96478.53;5067522;28;20400;-78
2023/12/14 02:20:50;;;;;;;9.38;5.40;;;;;;;4.26;100.00;96482.16;5061236;28;20427;-78
2023/12/14 02:23:18;;;;;;;7.82;4.82;;;;;;;4.27;100.00;96483.75;5076736;28;20400;-78
2023/12/14 02:25:44;;;;;;;8.40;4.30;;;;;;;4.27;100.00;96487.19;5068042;28;20539;-78
2023/12/14 02:28:10;;;;;;;13.82;6.53;;;;;;;4.26;100.00;96485.59;5069698;28;20413;-78
2023/12/14 02:30:36;;;;;;;8.90;5.32;;;;;;;4.26;100.00;96482.16;5064900;28;20429;-78
2023/12/14 02:33:02;;;;;;;8.57;5.75;;;;;;;4.26;100.00;96488.19;5062059;28;20402;-78
2023/12/14 02:35:28;;;;;;;11.40;6.35;;;;;;;4.25;100.00;96486.59;5075900;28;20400;-78
2023/12/14 02:37:54;;;;;;;10.15;5.60;;;;;;;4.25;100.00;96489.22;5061379;28;20395;-78
2023/12/14 02:40:22;;;;;;;7.28;4.93;;;;;;;4.27;100.00;96497.66;5059874;28;20489;-78
2023/12/14 02:42:48;;;;;;;6.50;4.72;;;;;;;4.29;100.00;96495.56;5073832;28;20390;-78
2023/12/14 02:45:14;;;;;;;12.27;6.20;;;;;;;4.29;100.00;96500.03;5065132;28;20392;-79
2023/12/14 02:47:41;;;;;;;9.48;5.43;;;;;;;4.32;100.00;96499.56;5069164;28;20483;-78
2023/12/14 02:50:07;;;;;;;8.68;4.47;;;;;;;4.32;100.00;96496.94;5068821;28;20760;-78
2023/12/14 02:52:34;;;;;;;8.10;4.93;;;;;;;4.34;100.00;96504.56;5060784;28;20398;-78
2023/12/14 02:55:00;;;;;;;10.82;5.07;;;;;;;4.35;100.00;96506.97;5050800;28;20399;-78
2023/12/14 02:57:27;;;;;;;7.03;4.68;;;;;;;4.36;100.00;96507.78;5076032;28;20427;-79
2023/12/14 02:59:53;;;;;;;9.95;4.95;;;;;;;4.34;100.00;96512.44;5064944;28;20402;-79
2023/12/14 03:02:20;;;;;;;14.68;7.00;;;;;;;4.32;100.00;96510.03;5066599;28;20405;-79
2023/12/14 03:04:46;;;;;;;13.85;6.93;;;;;;;4.32;100.00;96511.88;5072694;28;20408;-78
2023/12/14 03:07:12;;;;;;;11.70;5.97;;;;;;;4.31;100.00;96518.13;5056064;28;20452;-78
2023/12/14 03:09:44;;;;;;;8.18;5.47;;;;;;;4.32;100.00;96524.97;5066302;28;20453;-78
2023/12/14 03:12:10;;;;;;;9.50;5.47;;;;;;;4.33;100.00;96518.69;5067991;28;20861;-78
2023/12/14 03:14:38;;;;;;;12.35;5.30;;;;;;;4.34;100.00;96528.94;5071917;28;20457;-78
2023/12/14 03:17:06;;;;;;;13.75;6.57;;;;;;;4.33;100.00;96529.97;5063778;28;20904;-78
2023/12/14 03:19:32;;;;;;;10.75;6.00;;;;;;;4.36;100.00;96534.72;5066851;28;20426;-78
2023/12/14 03:21:58;;;;;;;11.63;5.90;;;;;;;4.36;100.00;96534.72;5076856;28;20759;-78
2023/12/14 03:24:24;;;;;;;14.07;6.30;;;;;;;4.37;100.00;96538.16;5077196;28;20419;-78
2023/12/14 03:26:50;;;;;;;10.95;6.07;;;;;;;4.38;100.00;96547.59;5077092;28;20392;-78
2023/12/14 03:29:18;;;;;;;10.68;6.13;;;;;;;4.38;100.00;96553.66;5076667;28;20431;-79
2023/12/14 03:31:46;;;;;;;9.67;5.40;;;;;;;4.41;100.00;96555.03;5076877;28;20392;-78
2023/12/14 03:34:12;;;;;;;12.38;5.93;;;;;;;4.39;100.00;96557.88;5076982;28;20403;-79
2023/12/14 03:36:38;;;;;;;8.82;5.13;;;;;;;4.41;100.00;96561.06;5077930;28;20407;-78
2023/12/14 03:39:05;;;;;;;7.00;4.40;;;;;;;4.43;100.00;96566.88;5076849;28;20399;-78
2023/12/14 03:41:31;;;;;;;6.90;4.13;;;;;;;4.44;100.00;96568.44;5077338;28;20395;-78
2023/12/14 03:43:57;;;;;;;9.18;5.10;;;;;;;4.44;100.00;96568.44;5076972;28;20458;-79
2023/12/14 03:46:24;;;;;;;8.73;4.72;;;;;;;4.45;100.00;96570.03;5077183;28;20391;-78
2023/12/14 03:48:51;;;;;;;7.00;4.22;;;;;;;4.46;100.00;96579.50;5076663;28;20418;-79
2023/12/14 03:51:19;;;;;;;7.20;4.22;;;;;;;4.49;100.00;96586.09;5076826;28;20431;-78
2023/12/14 03:53:45;;;;;;;4.78;3.60;;;;;;;4.50;100.00;96579.84;5077272;28;20943;-79
2023/12/14 03:56:11;;;;;;;5.45;3.40;;;;;;;4.52;100.00;96594.28;5076684;28;20396;-78
2023/12/14 03:58:37;;;;;;;4.82;3.22;;;;;;;4.54;100.00;96601.91;5076375;28;20942;-78
2023/12/14 04:01:04;;;;;;;3.88;2.88;;;;;;;4.56;100.00;96595.44;5077250;28;20399;-78
2023/12/14 04:03:30;;;;;;;4.35;2.90;;;;;;;4.57;100.00;96604.09;5076366;28;20449;-78
2023/12/14 04:05:57;;;;;;;4.20;3.00;;;;;;;4.56;100.00;96605.91;5077687;28;20494;-78
2023/12/14 04:08:24;;;;;;;3.50;2.80;;;;;;;4.56;100.00;96612.97;5077650;28;20411;-78
2023/12/14 04:10:50;;;;;;;4.90;3.20;;;;;;;4.55;100.00;96611.38;5077026;28;20425;-80
2023/12/14 04:13:16;;;;;;;4.65;3.20;;;;;;;4.53;100.00;96619.47;5076349;28;20399;-78
2023/12/14 04:15:42;;;;;;;6.00;3.13;;;;;;;4.54;100.00;96623.69;5075859;28;20405;-78
2023/12/14 04:18:08;;;;;;;4.35;3.20;;;;;;;4.54;100.00;96625.50;5074601;28;20756;-78
2023/12/14 04:20:35;;;;;;;4.97;2.75;;;;;;;4.55;100.00;96629.72;5075698;28;20457;-79
2023/12/14 04:23:02;;;;;;;4.82;2.90;;;;;;;4.55;100.00;96638.38;5081202;28;20403;-80
2023/12/14 04:25:28;;;;;;;7.30;4.20;;;;;;;4.53;100.00;96642.25;5081341;28;20399;-80
2023/12/14 04:27:54;;;;;;;5.80;3.38;;;;;;;4.53;100.00;96647.50;5075816;28;20411;-79
2023/12/14 04:30:21;;;;;;;5.75;3.80;;;;;;;4.52;100.00;96641.44;5074975;28;20431;-80
2023/12/14 04:32:47;;;;;;;6.63;3.92;;;;;;;4.52;100.00;96644.06;5074193;28;20400;-78
2023/12/14 04:35:13;;;;;;;5.97;3.58;;;;;;;4.53;100.00;96650.09;5074330;28;20391;-77
2023/12/14 04:37:39;;;;;;;7.22;3.92;;;;;;;4.54;100.00;96655.13;5074197;28;20489;-77
2023/12/14 04:40:09;;;;;;;7.68;4.18;;;;;;;4.54;100.00;96652.50;5073665;28;20400;-78
2023/12/14 04:42:35;;;;;;;7.00;4.15;;;;;;;4.53;100.00;96656.16;5073712;28;20403;-78
2023/12/14 04:45:02;;;;;;;7.20;3.63;;;;;;;4.54;100.00;96659.56;5074624;28;20395;-78
2023/12/14 04:47:28;;;;;;;6.00;3.80;;;;;;;4.54;100.00;96659.56;5068382;28;20481;-78
2023/12/14 04:49:54;;;;;;;8.75;3.85;;;;;;;4.55;100.00;96664.59;5071265;28;20453;-78
2023/12/14 04:52:20;;;;;;;5.68;3.83;;;;;;;4.56;100.00;96670.63;5075695;28;20388;-77
2023/12/14 04:54:47;;;;;;;6.25;3.60;;;;;;;4.56;100.00;96674.06;5075419;28;20478;-77
2023/12/14 04:57:14;;;;;;;14.33;5.90;;;;;;;4.56;100.00;96668.81;5076068;28;20414;-77
2023/12/14 04:59:42;;;;;;;10.15;5.05;;;;;;;4.56;100.00;96673.25;5072565;28;20431;-77
2023/12/14 05:02:08;;;;;;;12.97;5.40;;;;;;;4.56;100.00;96686.34;5064617;28;20733;-77
2023/12/14 05:04:34;;;;;;;11.05;5.93;;;;;;;4.56;100.00;96683.72;5066622;28;20902;-77
2023/12/14 05:07:01;;;;;;;14.93;6.28;;;;;;;4.57;100.00;96685.34;5063794;28;20409;-78
2023/12/14 05:09:27;;;;;;;14.53;6.93;;;;;;;4.56;100.00;96696.84;5061167;28;20472;-77
2023/12/14 05:11:54;;;;;;;17.83;8.00;;;;;;;4.56;100.00;96699.47;5062635;28;20405;-77
2023/12/14 05:14:21;;;;;;;19.83;8.25;;;;;;;4.56;100.00;96697.63;5057761;28;20414;-77
2023/12/14 05:16:47;;;;;;;15.90;7.57;;;;;;;4.57;100.00;96709.72;5058794;28;20400;-77
2023/12/14 05:19:14;;;;;;;18.40;8.50;;;;;;;4.59;100.00;96706.84;5059705;28;20476;-77
2023/12/14 05:21:40;;;;;;;21.00;8.57;;;;;;;4.60;100.00;96711.06;5056552;28;20404;-77
2023/12/14 05:24:06;;;;;;;16.63;7.53;;;;;;;4.60;100.00;96711.88;5064340;28;20776;-77
2023/12/14 05:26:32;;;;;;;20.88;8.65;;;;;;;4.62;100.00;96717.69;5061206;28;20398;-77
2023/12/14 05:28:59;;;;;;;28.45;10.48;;;;;;;4.62;100.00;96722.94;5066574;28;20418;-77
2023/12/14 05:31:26;;;;;;;20.05;7.88;;;;;;;4.64;100.00;96738.44;5068163;28;20402;-78
2023/12/14 05:33:52;;;;;;;26.95;8.82;;;;;;;4.64;100.00;96736.59;5063341;28;20458;-77
2023/12/14 05:36:18;;;;;;;19.05;8.18;;;;;;;4.65;100.00;96746.06;5065698;28;20399;-78
2023/12/14 05:38:45;;;;;;;24.83;10.02;;;;;;;4.64;100.00;96747.09;5074088;28;20396;-77
2023/12/14 05:41:11;;;;;;;23.67;8.75;;;;;;;4.63;100.00;96755.19;5074019;28;20404;-78
2023/12/14 05:43:37;;;;;;;20.83;8.82;;;;;;;4.62;100.00;96761.44;5073784;28;20453;-77
2023/12/14 05:46:04;;;;;;;23.08;8.82;;;;;;;4.62;100.00;96758.81;5070639;28;20401;-78
2023/12/14 05:48:31;;;;;;;26.23;9.38;;;;;;;4.62;100.00;96769.31;5066064;28;20416;-78
2023/12/14 05:50:57;;;;;;;26.65;10.23;;;;;;;4.60;100.00;96772.16;5069192;28;20403;-78
2023/12/14 05:53:24;;;;;;;25.40;10.18;;;;;;;4.61;100.00;96775.56;5072761;28;20466;-78
2023/12/14 05:55:50;;;;;;;24.80;9.95;;;;;;;4.61;100.00;96781.59;5073203;28;20398;-80
2023/12/14 05:58:16;;;;;;;22.60;9.73;;;;;;;4.62;100.00;96783.22;5068259;28;20417;-78
2023/12/14 06:00:42;;;;;;;21.13;9.20;;;;;;;4.63;100.00;96784.00;5059620;28;20421;-78
2023/12/14 06:03:08;;;;;;;24.33;9.40;;;;;;;4.64;100.00;96789.03;5063794;28;20434;-78
2023/12/14 06:05:36;;;;;;;29.10;10.88;;;;;;;4.63;100.00;96790.06;5060468;28;20398;-77
2023/12/14 06:08:02;;;;;;;23.83;10.67;;;;;;;4.64;100.00;96799.53;5060349;28;20478;-78
2023/12/14 06:10:29;;;;;;;33.97;12.32;;;;;;;4.62;100.00;96800.75;5070630;28;20926;-78
2023/12/14 06:12:55;;;;;;;28.02;10.82;;;;;;;4.62;100.00;96803.38;5072592;28;20388;-78
2023/12/14 06:15:21;;;;;;;28.77;11.02;;;;;;;4.60;100.00;96803.59;5064288;28;20402;-78
2023/12/14 06:17:47;;;;;;;25.50;10.15;;;;;;;4.60;100.00;96806.22;5064907;28;20441;-79
2023/12/14 06:20:14;;;;;;;26.10;10.60;;;;;;;4.61;100.00;96807.03;5056357;28;20888;-78
2023/12/14 06:22:41;;;;;;;24.70;9.77;;;;;;;4.62;100.00;96811.25;5061841;28;20500;-78
2023/12/14 06:25:08;;;;;;;29.58;10.23;;;;;;;4.62;100.00;96817.28;5061280;28;20399;-78
2023/12/14 06:27:34;;;;;;;28.42;10.93;;;;;;;4.62;100.00;96817.28;5064442;28;20442;-77
2023/12/14 06:30:00;;;;;;;29.52;11.43;;;;;;;4.62;100.00;96819.91;5064536;28;20395;-77
2023/12/14 06:32:26;;;;;;;26.77;10.57;;;;;;;4.62;100.00;96827.78;5061503;28;20814;-77
2023/12/14 06:34:53;;;;;;;32.33;12.07;;;;;;;4.62;100.00;96832.22;5062542;28;20397;-77
2023/12/14 06:37:19;;;;;;;34.17;12.20;;;;;;;4.63;100.00;96829.38;5061158;28;20424;-77
2023/12/14 06:39:46;;;;;;;39.42;13.98;;;;;;;4.61;100.00;96838.47;5058065;28;20398;-78
2023/12/14 06:42:13;;;;;;;36.72;13.68;;;;;;;4.61;100.00;96846.34;5059989;28;20439;-77
2023/12/14 06:44:39;;;;;;;37.85;13.25;;;;;;;4.59;100.00;96859.66;5061282;28;20749;-77
2023/12/14 06:47:06;;;;;;;37.25;13.05;;;;;;;4.60;100.00;96850.78;5065098;28;20482;-80
2023/12/14 06:49:32;;;;;;;38.73;13.43;;;;;;;4.60;100.00;96857.84;5057042;28;20419;-78
2023/12/14 06:51:58;;;;;;;40.40;14.02;;;;;;;4.59;100.00;96864.91;5062397;28;20397;-78
2023/12/14 06:54:24;;;;;;;33.08;11.90;;;;;;;4.60;100.00;96868.31;5065921;28;20439;-78
2023/12/14 06:56:52;;;;;;;29.70;11.35;;;;;;;4.61;100.00;96875.97;5065962;28;20405;-80
2023/12/14 06:59:18;;;;;;;29.30;10.38;;;;;;;4.64;100.00;96885.22;5066001;28;20409;-79
2023/12/14 07:01:44;;;;;;;44.15;13.98;;;;;;;4.62;100.00;96882.81;5069339;28;20418;-79
2023/12/14 07:04:10;;;;;;;39.90;14.30;;;;;;;4.62;100.00;96892.50;5066779;28;20428;-79
2023/12/14 07:06:37;;;;;;;49.13;16.35;;;;;;;4.62;100.00;96900.38;5073534;28;20400;-79
2023/12/14 07:09:03;;;;;;;38.90;13.57;;;;;;;4.63;100.00;96912.44;5072183;28;20508;-79
2023/12/14 07:11:29;;;;;;;35.28;12.38;;;;;;;4.63;100.00;96915.88;5070971;28;20487;-79
2023/12/14 07:13:56;;;;;;;30.45;11.45;;;;;;;4.65;100.00;96928.75;5063003;28;20421;-78
2023/12/14 07:16:23;;;;;;;29.73;10.73;;;;;;;4.66;100.00;96922.50;5060573;28;20904;-78
2023/12/14 07:18:49;;;;;;;24.75;9.32;;;;;;;4.69;100.00;96940.38;5060240;28;20411;-78
2023/12/14 07:21:15;;;;;;;24.10;9.07;;;;;;;4.72;100.00;96944.38;5060094;28;20487;-78
2023/12/14 07:23:41;;;;;;;25.35;9.93;;;;;;;4.74;100.00;96944.94;5066132;28;20404;-78
2023/12/14 07:26:07;;;;;;;26.85;9.75;;;;;;;4.75;100.00;96952.59;5067434;28;20437;-84
2023/12/14 07:28:33;;;;;;;47.45;15.45;;;;;;;4.71;100.00;96951.47;5057278;28;20469;-84
2023/12/14 07:31:01;;;;;;;45.22;15.35;;;;;;;4.72;100.00;96960.13;5068097;28;20434;-82
2023/12/14 07:33:27;;;;;;;74.32;16.40;;;;;;;4.72;100.00;96960.13;5069455;28;21055;-83
2023/12/14 07:35:54;;;;;;;65.57;16.27;;;;;;;4.70;100.00;96960.34;5067048;28;20447;-83
2023/12/14 07:38:20;;;;;;;46.60;15.00;;;;;;;4.70;100.00;96960.34;5065468;28;20429;-84
2023/12/14 07:40:46;;;;;;;40.45;12.95;;;;;;;4.70;100.00;96968.19;5065076;28;20448;-84
2023/12/14 07:43:13;;;;;;;34.70;11.32;;;;;;;4.70;100.00;96972.66;5062765;28;20956;-86
2023/12/14 07:45:39;;;;;;;33.72;11.90;;;;;;;4.68;100.00;96971.03;5064045;28;20402;-84
2023/12/14 07:48:06;;;;;;;40.75;14.63;;;;;;;4.67;100.00;96981.75;5068433;28;20425;-84
2023/12/14 07:50:32;;;;;;;45.17;15.77;;;;;;;4.64;100.00;96979.59;5067494;28;20416;-85
2023/12/14 07:52:59;;;;;;;39.75;13.23;;;;;;;4.65;100.00;96981.19;5073038;28;20424;-85
2023/12/14 07:55:25;;;;;;;43.17;14.70;;;;;;;4.65;100.00;96978.56;5066147;28;20403;-85
2023/12/14 07:57:51;;;;;;;57.40;18.15;;;;;;;4.64;100.00;96979.59;5072513;28;20403;-84
2023/12/14 08:00:18;;;;;;;46.30;16.67;;;;;;;4.65;100.00;96989.06;5055266;28;20897;-83
2023/12/14 08:02:44;;;;;;;41.42;14.65;;;;;;;4.66;100.00;96988.81;5069380;28;20397;-82
2023/12/14 08:05:11;;;;;;;43.33;15.27;;;;;;;4.71;100.00;96990.78;5063372;28;20399;-83
2023/12/14 08:07:38;;;;;;;35.92;13.48;;;;;;;4.78;100.00;96996.72;5064530;28;20742;-84
2023/12/14 08:10:04;;;;;;;37.03;14.18;;;;;;;4.84;100.00;97008.13;5065762;28;20409;-83
2023/12/14 08:12:30;;;;;;;44.65;16.08;;;;;;;4.87;100.00;97008.50;5053135;28;20800;-84
2023/12/14 08:14:56;;;;;;;38.28;14.10;;;;;;;4.89;100.00;97013.50;5064105;28;20947;-83
2023/12/14 08:17:23;;;;;;;53.97;17.65;;;;;;;4.86;100.00;97019.22;5069614;28;20471;-83
2023/12/14 08:19:49;;;;;;;44.83;16.35;;;;;;;4.84;100.00;97022.06;5058915;28;20400;-83
2023/12/14 08:22:16;;;;;;;58.00;19.33;;;;;;;4.79;100.00;97032.41;5064735;28;20906;-83
2023/12/14 08:24:43;;;;;;;61.05;19.40;;;;;;;4.80;100.00;97036.66;5069140;28;20414;-82
2023/12/14 08:27:09;;;;;;;46.92;16.02;;;;;;;4.85;100.00;97042.00;5071393;28;20427;-82
2023/12/14 08:29:35;;;;;;;33.17;12.65;;;;;;;4.89;100.00;97050.22;5057393;28;20418;-84
2023/12/14 08:32:01;;;;;;;35.58;12.93;;;;;;;4.93;100.00;97061.88;5057764;28;20401;-83
2023/12/14 08:34:28;;;;;;;59.97;19.33;;;;;;;4.95;100.00;97049.34;5057017;28;20412;-85
2023/12/14 08:36:55;;;;;;;66.10;21.92;;;;;;;4.92;100.00;97052.41;5075503;28;20406;-84
2023/12/14 08:39:23;;;;;;;50.85;16.98;;;;;;;4.93;100.00;97065.31;5057037;28;20410;-83
2023/12/14 08:41:49;;;;;;;61.22;19.80;;;;;;;4.92;100.00;97066.31;5056821;28;20455;-84
2023/12/14 08:44:15;;;;;;;61.80;20.92;;;;;;;4.93;100.00;97072.38;5056112;28;20432;-84
2023/12/14 08:46:43;;;;;;;42.07;16.73;;;;;;;5.01;100.00;97085.16;5058318;28;20866;-84
2023/12/14 08:49:10;;;;;;;39.85;14.52;;;;;;;5.17;100.00;97095.03;5075250;28;20948;-83
2023/12/14 08:51:36;;;;;;;27.92;11.68;;;;;;;5.38;100.00;97101.59;5067402;28;20400;-84
2023/12/14 08:54:02;;;;;;;24.55;10.57;;;;;;;5.57;100.00;97110.19;5077045;28;20789;-85
2023/12/14 08:56:29;;;;;;;34.40;13.57;;;;;;;5.60;100.00;97121.03;5082336;28;20407;-85
2023/12/14 08:58:57;;;;;;;33.42;12.90;;;;;;;5.58;100.00;97119.66;5081730;28;20388;-86
2023/12/14 09:01:23;;;;;;;28.38;12.57;;;;;;;5.56;100.00;97122.53;5085739;28;20406;-85
2023/12/14 09:03:50;;;;;;;36.67;14.82;;;;;;;5.51;100.00;97129.47;5083328;28;20399;-83
2023/12/14 09:06:17;;;;;;;40.38;15.65;;;;;;;5.43;100.00;97135.84;5071873;28;20743;-83
2023/12/14 09:08:44;;;;;;;52.43;18.13;;;;;;;5.37;100.00;97132.28;5055903;28;20975;-83
2023/12/14 09:11:11;;;;;;;51.85;18.38;;;;;;;5.41;100.00;97145.78;5055324;28;20488;-83
2023/12/14 09:13:38;;;;;;;44.03;16.75;;;;;;;5.43;100.00;97144.50;5070495;28;20407;-83
2023/12/14 09:16:05;;;;;;;39.55;14.77;;;;;;;5.50;100.00;97146.22;5059529;28;20421;-82
2023/12/14 09:18:32;;;;;;;28.70;12.68;;;;;;;5.56;100.00;97140.91;5075147;28;20444;-82
2023/12/14 09:20:58;;;;;;;40.58;15.55;;;;;;;5.55;100.00;97144.56;5059423;28;20397;-82
2023/12/14 09:23:24;;;;;;;46.22;17.15;;;;;;;5.57;100.00;97155.59;5071145;28;20813;-81
2023/12/14 09:25:50;;;;;;;46.05;17.80;;;;;;;5.57;100.00;97154.81;5074553;28;20899;-82
2023/12/14 09:28:16;;;;;;;57.58;18.58;;;;;;;5.59;100.00;97158.81;5074662;28;20446;-82
2023/12/14 09:30:44;;;;;;;45.83;17.02;;;;;;;5.62;100.00;97163.63;5062580;28;20393;-83
2023/12/14 09:33:10;;;;;;;37.22;15.10;;;;;;;5.67;100.00;97168.19;5054727;28;20412;-82
2023/12/14 09:35:36;;;;;;;31.25;13.80;;;;;;;5.70;100.00;97171.19;5055448;28;21255;-82
2023/12/14 09:38:03;;;;;;;28.70;12.07;;;;;;;5.74;100.00;97174.94;5054489;28;20881;-82
2023/12/14 09:40:29;;;;;;;33.63;12.80;;;;;;;5.80;100.00;97184.56;5062938;28;20434;-82
2023/12/14 09:42:56;;;;;;;24.80;10.88;;;;;;;5.85;100.00;97178.66;5056091;28;20411;-81
2023/12/14 09:45:27;;;;;;;35.08;13.88;;;;;;;5.90;100.00;97186.66;5059212;28;20955;-81
2023/12/14 09:47:55;;;;;;;23.43;10.50;;;;;;;5.96;100.00;97188.38;5064338;28;20423;-81
2023/12/14 09:50:22;;;;;;;29.65;12.68;;;;;;;5.99;100.00;97200.28;5066158;28;20417;-81
2023/12/14 09:52:49;;;;;;;33.08;13.85;;;;;;;6.00;100.00;97194.00;5069104;28;20802;-80
2023/12/14 09:55:15;;;;;;;29.33;12.18;;;;;;;6.03;100.00;97199.59;5058462;28;20390;-81
2023/12/14 09:57:41;;;;;;;28.20;11.70;;;;;;;6.06;100.00;97199.16;5069320;28;20388;-82
2023/12/14 10:00:13;;;;;;;27.25;11.63;;;;;;;6.12;100.00;97211.38;5070319;28;20387;-80
2023/12/14 10:02:40;;;;;;;25.98;10.95;;;;;;;6.16;100.00;97212.50;5061616;28;20401;-81
2023/12/14 10:05:11;;;;;;;26.23;12.10;;;;;;;6.20;100.00;97210.25;5061476;28;20400;-81
2023/12/14 10:07:42;;;;;;;42.30;14.68;;;;;;;6.20;100.00;97216.28;5068259;28;20865;-82
2023/12/14 10:10:15;;;;;;;40.40;15.87;;;;;;;6.26;100.00;97217.22;5063731;28;20483;-80
2023/12/14 10:12:54;;;;;;;49.80;19.35;;;;;;;6.18;100.00;97213.09;5062519;28;20482;-81
2023/12/14 10:15:23;;;;;;;31.25;14.18;;;;;;;6.36;100.00;97212.19;5068240;28;20406;-81
2023/12/14 10:17:53;;;;;;;25.73;12.68;;;;;;;6.48;100.00;97220.88;5064658;28;20397;-80
2023/12/14 10:20:21;;;;;;;34.53;14.93;;;;;;;6.54;100.00;97217.31;5055797;28;20399;-81
2023/12/14 10:22:49;;;;;;;26.33;13.10;;;;;;;6.58;100.00;97226.38;5069292;28;20410;-81
2023/12/14 10:25:17;;;;;;;27.73;12.98;;;;;;;6.59;100.00;97222.72;5061765;28;20459;-80
2023/12/14 10:27:46;;;;;;;21.02;10.90;;;;;;;6.67;100.00;97220.78;5062397;28;20741;-81
2023/12/14 10:30:15;;;;;;;28.13;13.30;;;;;;;6.61;100.00;97223.28;5061631;28;20482;-81
2023/12/14 10:32:41;;;;;;;17.88;10.13;;;;;;;6.72;100.00;97237.47;5062493;28;20457;-80
2023/12/14 10:35:08;;;;;;;19.10;9.23;;;;;;;6.80;100.00;97231.03;5067076;28;20469;-81
2023/12/14 10:37:38;;;;;;;18.17;9.73;;;;;;;6.86;100.00;97230.13;5068486;28;20477;-81
2023/12/14 10:40:07;;;;;;;14.47;9.03;;;;;;;6.95;100.00;97241.91;5072320;28;20863;-80
2023/12/14 10:42:36;;;;;;;11.05;7.25;;;;;;;7.05;100.00;97247.38;5071415;28;20419;-80
2023/12/14 10:45:04;;;;;;;16.92;8.07;;;;;;;7.11;100.00;97258.81;5062704;28;20500;-80
2023/12/14 10:47:31;;;;;;;11.57;7.50;;;;;;;7.11;100.00;97254.34;5053501;28;20411;-80
2023/12/14 10:49:59;;;;;;;14.63;7.68;;;;;;;7.09;100.00;97256.41;5056227;28;20406;-81
2023/12/14 10:52:26;;;;;;;12.05;7.05;;;;;;;7.12;100.00;97253.31;5055254;28;20429;-81
2023/12/14 10:55:00;;;;;;;9.50;6.37;;;;;;;7.16;100.00;97266.78;5056588;28;20412;-81
2023/12/14 10:57:26;;;;;;;9.60;6.10;;;;;;;7.17;100.00;97263.13;5073166;28;20387;-82
2023/12/14 10:59:59;;;;;;;9.85;6.63;;;;;;;7.12;100.00;97263.84;5083228;28;20752;-81
2023/12/14 11:02:25;;;;;;;11.75;7.47;;;;;;;7.11;100.00;97270.13;5083968;28;20451;-80
2023/12/14 11:04:59;;;;;;;14.32;7.93;;;;;;;7.15;100.00;97271.25;5075119;28;20388;-81
2023/12/14 11:07:44;;;;;;;10.52;7.20;;;;;;;7.25;100.00;97268.84;5071931;28;20403;-81
2023/12/14 11:10:12;;;;;;;12.17;7.60;;;;;;;7.33;100.00;97270.31;5071716;28;20748;-81
2023/12/14 11:12:50;;;;;;;19.00;8.70;;;;;;;7.34;100.00;97270.09;5071919;28;20399;-81
2023/12/14 11:15:18;;;;;;;15.15;8.20;;;;;;;7.32;100.00;97264.25;5071556;28;20798;-81
2023/12/14 11:18:10;;;;;;;10.50;7.05;;;;;;;7.39;100.00;97272.00;5071976;28;20391;-81
2023/12/14 11:20:49;;;;;;;7.65;5.22;;;;;;;7.43;100.00;97275.00;5071216;28;20414;-81
2023/12/14 11:23:19;;;;;;;7.25;4.72;;;;;;;7.41;100.00;97282.31;5071683;28;20391;-81